createdAt,value
2023-01-11T00:00:46.718Z,42.63
2023-01-11T00:05:48.828Z,37.13
2023-01-11T00:08:18.974Z,40.07
2023-01-11T00:10:48.798Z,38.50
2023-01-11T00:13:19.402Z,40.20
2023-01-11T00:15:49.286Z,39.00
2023-01-11T00:18:18.975Z,37.43
2023-01-11T00:20:49.064Z,31.63
2023-01-11T00:23:18.182Z,33.00
2023-01-11T00:25:47.556Z,34.10
2023-01-11T00:28:16.836Z,35.07
2023-01-11T00:30:48.403Z,35.63
2023-01-11T00:33:18.417Z,36.83
2023-01-11T00:35:47.843Z,38.77
2023-01-11T00:38:37.519Z,36.43
2023-01-11T00:41:23.204Z,35.53
2023-01-11T00:44:11.836Z,35.40
2023-01-11T00:46:59.600Z,35.77
2023-01-11T00:49:29.356Z,37.13
2023-01-11T00:51:58.745Z,36.43
2023-01-11T00:54:27.960Z,36.13
2023-01-11T00:56:57.395Z,35.30
2023-01-11T00:59:27.051Z,35.40
2023-01-11T01:01:57.346Z,36.40
2023-01-11T01:04:26.534Z,37.77
2023-01-11T01:06:58.314Z,32.93
2023-01-11T01:09:27.976Z,33.93
2023-01-11T01:11:57.214Z,34.70
2023-01-11T01:14:28.361Z,33.93
2023-01-11T01:17:00.126Z,38.07
2023-01-11T01:19:30.691Z,38.25
2023-01-11T01:22:01.057Z,36.93
2023-01-11T01:24:32.207Z,39.30
2023-01-11T01:27:05.060Z,39.63
2023-01-11T01:29:39.312Z,35.87
2023-01-11T01:32:10.954Z,38.00
2023-01-11T01:34:41.350Z,37.70
2023-01-11T01:37:12.706Z,38.20
2023-01-11T01:39:41.932Z,39.10
2023-01-11T01:42:15.487Z,39.50
2023-01-11T01:45:10.533Z,38.97
2023-01-11T01:47:45.837Z,40.17
2023-01-11T01:50:20.912Z,36.63
2023-01-11T01:52:54.518Z,40.00
2023-01-11T01:55:28.735Z,44.23
2023-01-11T01:58:01.671Z,41.17
2023-01-11T02:00:31.643Z,46.07
2023-01-11T02:03:02.567Z,43.53
2023-01-11T02:05:31.810Z,39.07
2023-01-11T02:08:06.677Z,40.00
2023-01-11T02:10:37.939Z,40.50
2023-01-11T02:13:14.111Z,44.23
2023-01-11T02:15:43.813Z,32.90
2023-01-11T02:18:14.330Z,38.83
2023-01-11T02:20:59.407Z,38.80
2023-01-11T02:24:22.007Z,37.60
2023-01-11T02:27:19.279Z,33.20
2023-01-11T02:30:03.373Z,33.60
2023-01-11T02:32:42.076Z,34.18
2023-01-11T02:35:20.935Z,35.43
2023-01-11T02:38:02.206Z,35.00
2023-01-11T02:40:45.341Z,34.17
2023-01-11T02:43:39.536Z,32.70
2023-01-11T02:46:16.933Z,31.12
2023-01-11T02:48:54.777Z,32.63
2023-01-11T02:51:32.498Z,31.93
2023-01-11T02:54:07.498Z,33.40
2023-01-11T02:56:42.171Z,36.13
2023-01-11T02:59:15.917Z,31.77
2023-01-11T03:01:47.074Z,30.30
2023-01-11T03:04:30.095Z,33.77
2023-01-11T03:07:15.294Z,30.93
2023-01-11T03:09:56.487Z,32.43
2023-01-11T03:12:57.403Z,30.27
2023-01-11T03:15:55.409Z,28.40
2023-01-11T03:18:39.875Z,30.80
2023-01-11T03:21:24.210Z,29.87
2023-01-11T03:24:05.361Z,28.90
2023-01-11T03:26:45.021Z,26.57
2023-01-11T03:29:23.026Z,26.93
2023-01-11T03:31:57.908Z,25.17
2023-01-11T03:34:33.721Z,25.90
2023-01-11T03:37:08.647Z,27.83
2023-01-11T03:39:44.923Z,25.20
2023-01-11T03:42:19.626Z,24.90
2023-01-11T03:44:58.893Z,24.73
2023-01-11T03:47:31.221Z,22.00
2023-01-11T03:50:03.949Z,22.77
2023-01-11T03:52:39.467Z,24.80
2023-01-11T03:55:13.420Z,23.17
2023-01-11T04:00:17.802Z,24.07
2023-01-11T04:02:47.109Z,24.23
2023-01-11T04:05:16.638Z,24.67
2023-01-11T04:07:45.930Z,24.23
2023-01-11T04:10:15.886Z,26.00
2023-01-11T04:12:47.762Z,24.80
2023-01-11T04:15:18.163Z,24.83
2023-01-11T04:17:47.946Z,23.80
2023-01-11T04:20:17.481Z,25.30
2023-01-11T04:22:46.599Z,23.37
2023-01-11T04:25:17.881Z,24.23
2023-01-11T04:27:47.289Z,22.30
2023-01-11T04:30:17.882Z,25.77
2023-01-11T04:32:47.340Z,24.70
2023-01-11T04:35:18.063Z,23.87
2023-01-11T04:37:50.759Z,23.27
2023-01-11T04:40:20.341Z,22.43
2023-01-11T04:42:49.746Z,23.33
2023-01-11T04:45:19.492Z,22.13
2023-01-11T04:48:05.860Z,23.30
2023-01-11T04:50:35.449Z,22.07
2023-01-11T04:53:07.359Z,22.47
2023-01-11T04:55:39.394Z,24.00
2023-01-11T04:58:18.203Z,23.37
2023-01-11T05:00:49.044Z,23.77
2023-01-11T05:03:19.132Z,21.93
2023-01-11T05:05:57.588Z,23.93
2023-01-11T05:08:28.420Z,25.03
2023-01-11T05:10:59.878Z,21.10
2023-01-11T05:13:42.824Z,22.13
2023-01-11T05:16:18.509Z,21.40
2023-01-11T05:18:55.631Z,20.50
2023-01-11T05:21:27.929Z,23.93
2023-01-11T05:24:01.376Z,23.57
2023-01-11T05:26:34.738Z,22.33
2023-01-11T05:29:06.470Z,22.42
2023-01-11T05:31:47.769Z,22.37
2023-01-11T05:34:20.873Z,23.90
2023-01-11T05:36:50.441Z,22.50
2023-01-11T05:39:23.744Z,26.00
2023-01-11T05:44:41.387Z,24.97
2023-01-11T05:47:19.685Z,24.83
2023-01-11T05:49:50.330Z,24.97
2023-01-11T05:52:20.340Z,25.23
2023-01-11T05:54:50.421Z,23.90
2023-01-11T05:57:24.689Z,25.20
2023-01-11T05:59:56.464Z,23.90
2023-01-11T06:02:27.947Z,23.47
2023-01-11T06:04:57.618Z,23.87
2023-01-11T06:07:29.394Z,24.20
2023-01-11T06:10:00.714Z,24.17
2023-01-11T06:12:31.446Z,24.97
2023-01-11T06:15:02.184Z,26.93
2023-01-11T06:17:32.370Z,25.43
2023-01-11T06:20:02.065Z,23.17
2023-01-11T06:22:31.307Z,21.03
2023-01-11T06:25:00.332Z,19.55
2023-01-11T06:27:33.700Z,21.87
2023-01-11T06:30:03.220Z,23.33
2023-01-11T06:32:33.067Z,21.50
2023-01-11T06:35:01.935Z,20.07
2023-01-11T06:37:31.634Z,21.97
2023-01-11T06:40:00.766Z,20.60
2023-01-11T06:42:30.574Z,21.03
2023-01-11T06:45:00.144Z,20.17
2023-01-11T06:47:32.608Z,20.43
2023-01-11T06:50:01.806Z,19.83
2023-01-11T06:52:34.429Z,17.83
2023-01-11T06:55:04.177Z,19.23
2023-01-11T06:57:33.933Z,18.70
2023-01-11T07:00:04.390Z,20.40
2023-01-11T07:02:34.386Z,21.40
2023-01-11T07:05:03.879Z,21.50
2023-01-11T07:07:33.657Z,20.43
2023-01-11T07:10:02.929Z,19.53
2023-01-11T07:12:33.510Z,19.70
2023-01-11T07:15:04.867Z,20.03
2023-01-11T07:17:36.749Z,19.23
2023-01-11T07:22:39.383Z,19.87
2023-01-11T07:25:10.049Z,18.87
2023-01-11T07:27:41.838Z,21.43
2023-01-11T07:30:14.428Z,23.03
2023-01-11T07:32:43.893Z,24.70
2023-01-11T07:35:13.500Z,22.13
2023-01-11T07:37:45.357Z,21.00
2023-01-11T07:40:21.996Z,19.27
2023-01-11T07:43:11.647Z,18.83
2023-01-11T07:45:46.206Z,16.93
2023-01-11T07:48:20.812Z,19.97
2023-01-11T07:50:52.258Z,19.53
2023-01-11T07:53:26.145Z,17.90
2023-01-11T07:55:57.431Z,18.10
2023-01-11T07:58:27.281Z,18.20
2023-01-11T08:01:00.495Z,18.93
2023-01-11T08:03:29.784Z,20.27
2023-01-11T08:05:59.487Z,19.93
2023-01-11T08:08:28.682Z,19.47
2023-01-11T08:11:16.831Z,18.67
2023-01-11T08:14:05.321Z,18.57
2023-01-11T08:16:42.935Z,18.37
2023-01-11T08:19:13.268Z,19.60
2023-01-11T08:21:44.314Z,19.00
2023-01-11T08:24:14.363Z,18.80
2023-01-11T08:26:48.764Z,18.67
2023-01-11T08:29:18.839Z,18.33
2023-01-11T08:31:49.158Z,18.50
2023-01-11T08:34:19.044Z,16.63
2023-01-11T08:36:48.341Z,15.93
2023-01-11T08:39:18.015Z,16.47
2023-01-11T08:41:47.283Z,16.50
2023-01-11T08:44:22.277Z,17.23
2023-01-11T08:47:02.799Z,14.13
2023-01-11T08:49:32.365Z,16.33
2023-01-11T08:52:01.681Z,15.70
2023-01-11T08:54:31.171Z,17.17
2023-01-11T08:57:00.549Z,16.30
2023-01-11T08:59:30.049Z,16.30
2023-01-11T09:01:59.518Z,17.43
2023-01-11T09:04:29.160Z,16.93
2023-01-11T09:06:58.426Z,17.00
2023-01-11T09:09:28.036Z,14.70
2023-01-11T09:11:59.805Z,14.10
2023-01-11T09:14:30.160Z,16.73
2023-01-11T09:16:59.602Z,13.63
2023-01-11T09:19:28.896Z,16.53
2023-01-11T09:22:00.037Z,14.93
2023-01-11T09:24:30.571Z,16.27
2023-01-11T09:27:01.247Z,15.40
2023-01-11T09:29:30.523Z,15.70
2023-01-11T09:31:59.682Z,14.80
2023-01-11T09:34:28.882Z,15.83
2023-01-11T09:37:00.462Z,13.70
2023-01-11T09:39:30.009Z,15.80
2023-01-11T09:42:30.983Z,14.60
2023-01-11T09:45:13.388Z,14.77
2023-01-11T09:47:48.374Z,15.30
2023-01-11T09:50:23.199Z,15.77
2023-01-11T09:52:56.580Z,13.77
2023-01-11T09:55:37.634Z,13.27
2023-01-11T09:58:28.885Z,14.60
2023-01-11T10:01:06.888Z,15.07
2023-01-11T10:04:07.712Z,14.53
2023-01-11T10:06:53.072Z,14.70
2023-01-11T10:18:22.461Z,14.57
2023-01-11T10:19:24.850Z,16.77
2023-01-11T10:21:50.225Z,17.62
2023-01-11T10:24:27.009Z,16.20
2023-01-11T10:27:01.657Z,14.33
2023-01-11T10:29:57.202Z,13.80
2023-01-11T10:32:54.815Z,13.50
2023-01-11T10:35:45.134Z,13.37
2023-01-11T10:38:47.729Z,12.50
2023-01-11T10:41:32.806Z,12.17
2023-01-11T10:44:13.163Z,13.03
2023-01-11T10:46:48.532Z,12.83
2023-01-11T10:49:43.657Z,14.20
2023-01-11T10:52:29.045Z,14.65
2023-01-11T10:55:03.902Z,13.67
2023-01-11T10:57:59.410Z,13.60
2023-01-11T11:00:39.932Z,13.50
2023-01-11T11:03:36.309Z,13.43
2023-01-11T11:06:14.474Z,12.73
2023-01-11T11:09:07.551Z,13.57
2023-01-11T11:11:52.635Z,13.23
2023-01-11T11:14:30.234Z,14.70
2023-01-11T11:17:12.112Z,13.13
2023-01-11T11:19:42.024Z,12.30
2023-01-11T11:22:13.186Z,12.70
2023-01-11T11:24:49.725Z,14.10
2023-01-11T11:27:27.321Z,13.63
2023-01-11T11:29:58.180Z,13.53
2023-01-11T11:32:31.307Z,14.57
2023-01-11T11:35:01.069Z,14.00
2023-01-11T11:37:35.494Z,14.87
2023-01-11T11:42:35.235Z,13.00
2023-01-11T11:45:17.765Z,13.50
2023-01-11T11:48:02.913Z,12.63
2023-01-11T11:50:44.713Z,11.97
2023-01-11T11:53:25.519Z,12.30
2023-01-11T11:55:56.354Z,12.10
2023-01-11T11:58:27.132Z,12.80
2023-01-11T12:00:57.455Z,12.37
2023-01-11T12:03:30.046Z,13.57
2023-01-11T12:06:01.668Z,13.67
2023-01-11T12:08:33.956Z,12.43
2023-01-11T12:11:07.051Z,12.83
2023-01-11T12:13:39.786Z,13.48
2023-01-11T12:16:25.293Z,13.53
2023-01-11T12:18:58.549Z,14.40
2023-01-11T12:21:30.645Z,13.67
2023-01-11T12:24:18.010Z,13.13
2023-01-11T12:27:05.663Z,12.10
2023-01-11T12:29:59.435Z,13.43
2023-01-11T12:32:59.515Z,13.27
2023-01-11T12:35:39.441Z,11.97
2023-01-11T12:38:39.814Z,12.47
2023-01-11T12:41:50.719Z,14.37
2023-01-11T12:44:37.432Z,13.87
2023-01-11T12:47:41.547Z,13.13
2023-01-11T12:50:20.648Z,13.57
2023-01-11T12:53:09.821Z,13.03
2023-01-11T12:56:10.243Z,13.67
2023-01-11T12:58:45.182Z,14.33
2023-01-11T13:01:39.502Z,13.90
2023-01-11T13:04:33.349Z,16.40
2023-01-11T13:07:11.763Z,15.55
2023-01-11T13:09:54.856Z,15.57
2023-01-11T13:12:32.148Z,14.10
2023-01-11T13:15:17.421Z,14.53
2023-01-11T13:17:52.943Z,14.17
2023-01-11T13:20:58.562Z,13.27
2023-01-11T13:23:35.624Z,13.20
2023-01-11T13:26:15.955Z,13.73
2023-01-11T13:28:53.696Z,14.60
2023-01-11T13:31:38.619Z,14.23
2023-01-11T13:34:18.799Z,14.57
2023-01-11T13:36:59.078Z,14.53
2023-01-11T13:39:44.567Z,14.00
2023-01-11T13:42:24.528Z,16.20
2023-01-11T13:45:07.327Z,14.83
2023-01-11T13:47:42.152Z,16.40
2023-01-11T13:50:21.601Z,15.40
2023-01-11T13:53:09.331Z,15.03
2023-01-11T13:55:52.586Z,14.57
2023-01-11T13:58:28.754Z,16.15
2023-01-11T14:01:07.559Z,15.53
2023-01-11T14:03:48.263Z,14.60
2023-01-11T14:06:42.355Z,17.10
2023-01-11T14:09:24.584Z,18.30
2023-01-11T14:12:05.382Z,17.53
2023-01-11T14:15:14.938Z,18.97
2023-01-11T14:18:16.735Z,17.77
2023-01-11T14:20:56.701Z,17.80
2023-01-11T14:23:32.907Z,17.17
2023-01-11T14:26:41.989Z,17.30
2023-01-11T14:29:30.911Z,16.87
2023-01-11T14:32:15.131Z,17.90
2023-01-11T14:35:13.298Z,17.42
2023-01-11T14:38:12.835Z,17.13
2023-01-11T14:40:56.340Z,16.40
2023-01-11T14:43:47.444Z,17.27
2023-01-11T14:46:48.531Z,17.87
2023-01-11T14:49:31.291Z,17.03
2023-01-11T14:52:04.618Z,16.37
2023-01-11T14:54:44.900Z,15.30
2023-01-11T14:57:37.322Z,16.95
2023-01-11T15:00:59.921Z,16.67
2023-01-11T15:03:56.124Z,16.03
2023-01-11T15:06:30.947Z,18.37
2023-01-11T15:09:00.468Z,17.43
2023-01-11T15:11:37.020Z,16.47
2023-01-11T15:14:28.770Z,17.60
2023-01-11T15:17:19.571Z,18.10
2023-01-11T15:19:51.194Z,17.05
2023-01-11T15:22:31.854Z,19.70
2023-01-11T15:25:03.618Z,18.70
2023-01-11T15:27:36.651Z,18.60
2023-01-11T15:30:28.974Z,18.53
2023-01-11T15:36:08.133Z,18.87
2023-01-11T15:38:51.023Z,19.70
2023-01-11T15:42:04.373Z,19.83
2023-01-11T15:45:04.041Z,18.37
2023-01-11T15:47:58.214Z,17.17
2023-01-11T15:51:01.167Z,19.53
2023-01-11T15:54:06.583Z,19.57
2023-01-11T15:56:58.154Z,19.27
2023-01-11T16:00:03.914Z,18.80
2023-01-11T16:03:17.131Z,20.50
2023-01-11T16:06:00.221Z,22.67
2023-01-11T16:08:40.374Z,23.13
2023-01-11T16:11:24.154Z,21.03
2023-01-11T16:14:15.582Z,21.48
2023-01-11T16:16:53.069Z,18.73
2023-01-11T16:19:30.345Z,18.97
2023-01-11T16:22:06.070Z,21.33
2023-01-11T16:24:46.552Z,18.73
2023-01-11T16:27:29.190Z,18.23
2023-01-11T16:30:03.155Z,17.03
2023-01-11T16:32:36.176Z,17.80
2023-01-11T16:35:23.879Z,18.30
2023-01-11T16:38:01.707Z,17.70
2023-01-11T16:40:37.944Z,18.90
2023-01-11T16:43:22.042Z,18.90
2023-01-11T16:45:57.218Z,19.03
2023-01-11T16:48:32.163Z,20.43
2023-01-11T16:51:07.908Z,18.00
2023-01-11T16:53:44.378Z,17.50
2023-01-11T16:56:22.014Z,17.10
2023-01-11T16:59:20.060Z,17.17
2023-01-11T17:01:57.377Z,17.97
2023-01-11T17:04:34.491Z,17.10
2023-01-11T17:07:16.352Z,16.23
2023-01-11T17:09:49.359Z,16.87
2023-01-11T17:12:32.268Z,18.13
2023-01-11T17:15:20.791Z,17.53
2023-01-11T17:17:56.209Z,17.60
2023-01-11T17:20:33.862Z,15.80
2023-01-11T17:23:08.234Z,18.20
2023-01-11T17:28:27.525Z,16.60
2023-01-11T17:31:02.068Z,17.97
2023-01-11T17:33:36.159Z,18.20
2023-01-11T17:38:42.214Z,18.93
2023-01-11T17:41:31.597Z,18.07
2023-01-11T17:44:23.136Z,18.30
2023-01-11T17:46:56.941Z,18.83
2023-01-11T17:49:33.724Z,18.40
2023-01-11T17:52:23.699Z,19.07
2023-01-11T17:55:14.385Z,16.63
2023-01-11T17:58:05.505Z,16.00
2023-01-11T18:00:38.823Z,16.90
2023-01-11T18:03:18.712Z,16.45
2023-01-11T18:05:51.543Z,16.60
2023-01-11T18:08:25.143Z,14.87
2023-01-11T18:10:59.791Z,16.07
2023-01-11T18:13:40.640Z,14.80
2023-01-11T18:16:21.202Z,15.80
2023-01-11T18:18:56.855Z,16.30
2023-01-11T18:21:54.813Z,16.37
2023-01-11T18:24:46.268Z,15.13
2023-01-11T18:27:26.259Z,14.93
2023-01-11T18:30:11.576Z,15.70
2023-01-11T18:32:45.933Z,17.73
2023-01-11T18:35:20.884Z,16.80
2023-01-11T18:37:54.579Z,14.73
2023-01-11T18:40:31.370Z,15.10
2023-01-11T18:43:04.129Z,14.37
2023-01-11T18:45:37.296Z,16.53
2023-01-11T18:48:15.667Z,20.37
2023-01-11T18:50:49.570Z,21.33
2023-01-11T18:53:23.905Z,17.70
2023-01-11T18:55:58.059Z,16.87
2023-01-11T18:58:31.449Z,18.33
2023-01-11T19:01:06.022Z,17.33
2023-01-11T19:03:41.074Z,16.90
2023-01-11T19:06:19.822Z,17.77
2023-01-11T19:08:52.296Z,16.67
2023-01-11T19:11:29.891Z,18.97
2023-01-11T19:14:03.636Z,23.17
2023-01-11T19:16:43.992Z,20.57
2023-01-11T19:19:17.458Z,20.55
2023-01-11T19:21:50.633Z,25.83
2023-01-11T19:24:25.356Z,23.03
2023-01-11T19:26:59.234Z,29.50
2023-01-11T19:32:03.741Z,22.80
2023-01-11T19:34:37.463Z,20.67
2023-01-11T19:37:10.890Z,22.73
2023-01-11T19:39:43.664Z,21.87
2023-01-11T19:42:16.450Z,17.13
2023-01-11T19:44:49.280Z,16.37
2023-01-11T19:47:22.673Z,17.27
2023-01-11T19:49:59.776Z,17.67
2023-01-11T19:52:34.251Z,19.30
2023-01-11T19:55:07.654Z,17.80
2023-01-11T19:57:41.876Z,17.53
2023-01-11T20:00:17.448Z,16.67
2023-01-11T20:02:49.986Z,15.90
2023-01-11T20:05:22.696Z,15.47
2023-01-11T20:07:56.445Z,14.83
2023-01-11T20:10:29.026Z,15.40
2023-01-11T20:13:01.930Z,15.67
2023-01-11T20:15:34.446Z,15.47
2023-01-11T20:18:07.399Z,17.80
2023-01-11T20:20:40.734Z,17.07
2023-01-11T20:23:13.551Z,16.17
2023-01-11T20:25:46.058Z,18.67
2023-01-11T20:28:20.570Z,17.90
2023-01-11T20:30:53.684Z,18.73
2023-01-11T20:33:28.880Z,18.50
2023-01-11T20:38:32.896Z,20.50
2023-01-11T20:41:14.679Z,21.03
2023-01-11T20:43:53.560Z,20.07
2023-01-11T20:46:40.428Z,21.93
2023-01-11T20:49:21.333Z,19.73
2023-01-11T20:52:03.388Z,23.07
2023-01-11T20:54:37.287Z,21.00
2023-01-11T20:57:12.787Z,22.42
2023-01-11T20:59:46.232Z,24.03
2023-01-11T21:02:18.649Z,25.37
2023-01-11T21:04:51.378Z,22.40
2023-01-11T21:07:34.190Z,25.00
2023-01-11T21:10:08.375Z,21.13
2023-01-11T21:12:40.861Z,22.97
2023-01-11T21:15:14.551Z,21.57
2023-01-11T21:17:46.920Z,22.62
2023-01-11T21:20:20.185Z,22.37
2023-01-11T21:22:52.462Z,23.40
2023-01-11T21:25:31.253Z,22.50
2023-01-11T21:28:04.242Z,21.17
2023-01-11T21:30:37.758Z,23.23
2023-01-11T21:33:10.173Z,22.83
2023-01-11T21:35:43.686Z,23.33
2023-01-11T21:38:16.520Z,23.43
2023-01-11T21:40:49.736Z,22.67
2023-01-11T21:43:22.127Z,22.13
2023-01-11T21:46:04.450Z,23.07
2023-01-11T21:48:37.237Z,23.43
2023-01-11T21:51:11.535Z,23.40
2023-01-11T21:53:43.803Z,24.60
2023-01-11T21:56:16.624Z,22.20
2023-01-11T21:58:50.544Z,24.35
2023-01-11T22:01:25.186Z,25.10
2023-01-11T22:04:15.834Z,23.37
2023-01-11T22:09:27.430Z,24.37
2023-01-11T22:12:05.069Z,23.83
2023-01-11T22:14:37.365Z,23.47
2023-01-11T22:17:09.878Z,22.70
2023-01-11T22:19:42.232Z,24.50
2023-01-11T22:22:14.696Z,23.77
2023-01-11T22:24:47.436Z,24.73
2023-01-11T22:27:25.545Z,24.93
2023-01-11T22:30:00.257Z,23.97
2023-01-11T22:32:34.440Z,23.60
2023-01-11T22:35:07.319Z,24.57
2023-01-11T22:37:39.858Z,23.43
2023-01-11T22:40:15.312Z,24.67
2023-01-11T22:42:47.977Z,25.53
2023-01-11T22:45:20.592Z,25.00
2023-01-11T22:48:00.996Z,23.00
2023-01-11T22:50:33.504Z,23.73
2023-01-11T22:53:06.352Z,25.17
2023-01-11T22:55:38.650Z,24.17
2023-01-11T22:58:11.541Z,24.23
2023-01-11T23:00:44.108Z,23.43
2023-01-11T23:03:18.367Z,24.23
2023-01-11T23:05:51.184Z,24.60
2023-01-11T23:08:23.822Z,23.70
2023-01-11T23:11:02.115Z,23.23
2023-01-11T23:14:01.826Z,23.73
2023-01-11T23:16:37.819Z,23.07
2023-01-11T23:19:12.578Z,23.30
2023-01-11T23:21:46.205Z,23.40
2023-01-11T23:24:19.752Z,23.95
2023-01-11T23:26:53.151Z,24.10
2023-01-11T23:29:27.020Z,23.40
2023-01-11T23:32:03.998Z,23.60
2023-01-11T23:34:36.669Z,23.20
2023-01-11T23:37:09.016Z,23.23
2023-01-11T23:39:41.852Z,23.53
2023-01-11T23:42:32.396Z,22.95
2023-01-11T23:45:07.030Z,21.20
2023-01-11T23:47:39.339Z,23.17
2023-01-11T23:50:12.673Z,21.53
2023-01-11T23:52:45.179Z,22.93
2023-01-11T23:55:18.082Z,22.63
2023-01-11T23:58:09.717Z,24.57
